createdAt,value
2022-10-17T00:00:10.316Z,98065.47
2022-10-17T00:02:36.815Z,98064.66
2022-10-17T00:05:03.520Z,98072.34
2022-10-17T00:07:30.808Z,98061.16
2022-10-17T00:09:57.532Z,98071.47
2022-10-17T00:12:24.040Z,98073.19
2022-10-17T00:14:50.530Z,98067.97
2022-10-17T00:17:17.068Z,98072.34
2022-10-17T00:19:43.536Z,98068.91
2022-10-17T00:22:10.026Z,98068.06
2022-10-17T00:24:36.543Z,98073.19
2022-10-17T00:27:03.028Z,98062.75
2022-10-17T00:29:29.566Z,98074.09
2022-10-17T00:31:56.963Z,98072.34
2022-10-17T00:34:24.138Z,98074.91
2022-10-17T00:36:50.638Z,98067.00
2022-10-17T00:39:17.180Z,98078.28
2022-10-17T00:41:43.714Z,98064.44
2022-10-17T00:44:29.060Z,98080.06
2022-10-17T00:46:59.695Z,98084.28
2022-10-17T00:49:27.460Z,98079.16
2022-10-17T00:51:59.041Z,98067.84
2022-10-17T00:54:31.407Z,98062.75
2022-10-17T00:56:57.923Z,98080.84
2022-10-17T00:59:24.506Z,98085.97
2022-10-17T01:02:02.015Z,98085.84
2022-10-17T01:04:28.515Z,98095.44
2022-10-17T01:06:55.020Z,98096.22
2022-10-17T01:09:21.501Z,98089.41
2022-10-17T01:11:52.539Z,98096.22
2022-10-17T01:14:46.912Z,98092.72
2022-10-17T01:17:36.060Z,98079.69
2022-10-17T01:20:20.821Z,98101.38
2022-10-17T01:23:07.978Z,98102.25
2022-10-17T01:25:43.027Z,98099.69
2022-10-17T01:28:24.082Z,98091.88
2022-10-17T01:31:03.441Z,98091.09
2022-10-17T01:33:40.209Z,98092.00
2022-10-17T01:36:21.991Z,98094.56
2022-10-17T01:39:01.033Z,98089.41
2022-10-17T01:41:34.381Z,98091.09
2022-10-17T01:44:05.221Z,98088.53
2022-10-17T01:46:43.934Z,98091.09
2022-10-17T01:49:10.763Z,98086.84
2022-10-17T01:51:40.081Z,98083.41
2022-10-17T01:54:09.522Z,98090.31
2022-10-17T01:56:36.011Z,98080.75
2022-10-17T01:59:17.435Z,98080.84
2022-10-17T02:01:44.825Z,98079.16
2022-10-17T02:04:11.539Z,98074.03
2022-10-17T02:06:38.036Z,98076.59
2022-10-17T02:09:26.463Z,98076.59
2022-10-17T02:12:11.487Z,98084.28
2022-10-17T02:14:43.983Z,98084.28
2022-10-17T02:17:32.191Z,98079.16
2022-10-17T02:20:07.612Z,98079.16
2022-10-17T02:22:41.780Z,98075.78
2022-10-17T02:25:27.679Z,98072.34
2022-10-17T02:28:00.355Z,98077.47
2022-10-17T02:30:33.998Z,98078.22
2022-10-17T02:33:12.662Z,98071.47
2022-10-17T02:35:41.689Z,98085.97
2022-10-17T02:38:08.380Z,98081.72
2022-10-17T02:40:34.886Z,98084.28
2022-10-17T02:43:01.353Z,98081.72
2022-10-17T02:45:28.626Z,98072.06
2022-10-17T02:48:16.771Z,98079.16
2022-10-17T02:50:58.635Z,98085.97
2022-10-17T02:53:30.630Z,98080.75
2022-10-17T02:56:01.784Z,98068.53
2022-10-17T02:58:31.130Z,98090.25
2022-10-17T03:00:58.293Z,98091.06
2022-10-17T03:03:26.772Z,98085.03
2022-10-17T03:05:53.443Z,98090.25
2022-10-17T03:08:20.254Z,98093.66
2022-10-17T03:10:46.758Z,98089.38
2022-10-17T03:13:13.911Z,98092.81
2022-10-17T03:15:40.400Z,98099.63
2022-10-17T03:18:06.907Z,98103.94
2022-10-17T03:20:33.386Z,98095.38
2022-10-17T03:22:59.879Z,98103.88
2022-10-17T03:25:26.394Z,98103.81
2022-10-17T03:27:53.079Z,98107.31
2022-10-17T03:30:19.725Z,98108.22
2022-10-17T03:32:46.287Z,98114.19
2022-10-17T03:35:15.075Z,98110.78
2022-10-17T03:37:41.746Z,98107.19
2022-10-17T03:40:08.571Z,98114.13
2022-10-17T03:42:35.030Z,98114.13
2022-10-17T03:45:01.639Z,98115.91
2022-10-17T03:47:29.039Z,98098.56
2022-10-17T03:49:55.756Z,98114.13
2022-10-17T03:52:22.258Z,98121.03
2022-10-17T03:54:49.900Z,98114.13
2022-10-17T03:57:16.651Z,98125.28
2022-10-17T03:59:43.130Z,98126.97
2022-10-17T04:02:09.724Z,98126.16
2022-10-17T04:04:36.206Z,98132.13
2022-10-17T04:07:02.662Z,98132.13
2022-10-17T04:09:29.147Z,98134.69
2022-10-17T04:11:55.638Z,98133.84
2022-10-17T04:14:22.126Z,98137.25
2022-10-17T04:16:48.676Z,98138.97
2022-10-17T04:19:15.155Z,98140.66
2022-10-17T04:21:41.638Z,98144.94
2022-10-17T04:24:10.285Z,98139.72
2022-10-17T04:26:36.784Z,98144.94
2022-10-17T04:29:03.563Z,98150.97
2022-10-17T04:31:30.047Z,98145.84
2022-10-17T04:33:56.528Z,98140.72
2022-10-17T04:36:23.382Z,98138.16
2022-10-17T04:38:49.911Z,98142.44
2022-10-17T04:41:17.667Z,98147.56
2022-10-17T04:43:46.967Z,98145.84
2022-10-17T04:46:16.751Z,98150.09
2022-10-17T04:48:43.231Z,98149.28
2022-10-17T04:51:18.743Z,98144.16
2022-10-17T04:53:47.251Z,98156.16
2022-10-17T04:56:15.598Z,98156.97
2022-10-17T04:58:42.466Z,98148.41
2022-10-17T05:01:10.750Z,98155.25
2022-10-17T05:03:37.347Z,98142.34
2022-10-17T05:06:07.660Z,98144.81
2022-10-17T05:08:34.608Z,98159.53
2022-10-17T05:11:01.142Z,98156.09
2022-10-17T05:13:27.659Z,98164.66
2022-10-17T05:15:54.225Z,98157.81
2022-10-17T05:18:20.709Z,98156.16
2022-10-17T05:20:47.235Z,98163.84
2022-10-17T05:23:13.716Z,98163.84
2022-10-17T05:25:40.236Z,98159.59
2022-10-17T05:28:06.786Z,98163.84
2022-10-17T05:30:36.695Z,98160.44
2022-10-17T05:33:03.388Z,98164.72
2022-10-17T05:35:29.880Z,98163.84
2022-10-17T05:37:56.413Z,98165.56
2022-10-17T05:40:22.906Z,98165.56
2022-10-17T05:42:49.428Z,98165.56
2022-10-17T05:45:16.139Z,98154.19
2022-10-17T05:47:42.632Z,98176.59
2022-10-17T05:50:09.370Z,98182.66
2022-10-17T05:52:35.988Z,98185.22
2022-10-17T05:55:03.243Z,98183.47
2022-10-17T05:57:29.724Z,98190.31
2022-10-17T05:59:56.243Z,98191.16
2022-10-17T06:02:22.846Z,98200.63
2022-10-17T06:04:50.107Z,98192.72
2022-10-17T06:07:16.688Z,98196.28
2022-10-17T06:09:43.395Z,98199.59
2022-10-17T06:12:09.868Z,98206.50
2022-10-17T06:14:36.343Z,98195.28
2022-10-17T06:17:02.835Z,98199.63
2022-10-17T06:19:29.383Z,98197.91
2022-10-17T06:21:55.868Z,98201.25
2022-10-17T06:24:22.431Z,98217.38
2022-10-17T06:26:49.882Z,98218.38
2022-10-17T06:29:16.400Z,98220.84
2022-10-17T06:31:42.904Z,98220.78
2022-10-17T06:34:09.389Z,98226.84
2022-10-17T06:36:35.895Z,98226.84
2022-10-17T06:39:02.444Z,98225.00
2022-10-17T06:41:29.008Z,98232.81
2022-10-17T06:43:55.553Z,98234.50
2022-10-17T06:46:22.091Z,98236.22
2022-10-17T06:48:48.556Z,98233.66
2022-10-17T06:51:15.066Z,98231.09
2022-10-17T06:53:41.522Z,98236.22
2022-10-17T06:56:08.303Z,98237.94
2022-10-17T06:58:36.331Z,98243.13
2022-10-17T07:01:05.306Z,98246.47
2022-10-17T07:03:31.939Z,98249.13
2022-10-17T07:05:58.602Z,98248.25
2022-10-17T07:08:25.346Z,98257.69
2022-10-17T07:10:51.878Z,98267.09
2022-10-17T07:13:18.807Z,98264.44
2022-10-17T07:15:45.445Z,98279.91
2022-10-17T07:18:11.991Z,98279.06
2022-10-17T07:20:38.538Z,98279.06
2022-10-17T07:23:05.058Z,98279.91
2022-10-17T07:25:33.273Z,98284.19
2022-10-17T07:28:02.228Z,98284.19
2022-10-17T07:30:28.725Z,98275.53
2022-10-17T07:32:55.298Z,98285.88
2022-10-17T07:35:21.847Z,98278.19
2022-10-17T07:37:48.327Z,98279.06
2022-10-17T07:40:15.039Z,98279.03
2022-10-17T07:42:41.583Z,98281.59
2022-10-17T07:45:08.543Z,98283.22
2022-10-17T07:47:37.600Z,98286.72
2022-10-17T07:50:04.859Z,98291.00
2022-10-17T07:52:31.829Z,98286.72
2022-10-17T07:54:58.811Z,98299.53
2022-10-17T07:57:25.555Z,98298.66
2022-10-17T07:59:53.087Z,98299.53
2022-10-17T08:02:24.077Z,98306.41
2022-10-17T08:04:51.343Z,98307.22
2022-10-17T08:07:24.137Z,98299.53
2022-10-17T08:09:53.530Z,98300.41
2022-10-17T08:12:20.431Z,98307.28
2022-10-17T08:14:48.099Z,98314.13
2022-10-17T08:17:14.596Z,98320.97
2022-10-17T08:19:41.183Z,98311.53
2022-10-17T08:22:07.851Z,98312.34
2022-10-17T08:24:34.424Z,98313.28
2022-10-17T08:27:01.085Z,98317.53
2022-10-17T08:29:27.623Z,98320.97
2022-10-17T08:31:58.607Z,98316.72
2022-10-17T08:34:28.027Z,98306.44
2022-10-17T08:36:54.575Z,98308.22
2022-10-17T08:39:21.128Z,98306.44
2022-10-17T08:42:05.622Z,98296.19
2022-10-17T08:45:09.715Z,98297.06
2022-10-17T08:47:42.300Z,98280.53
2022-10-17T08:50:25.686Z,98287.50
2022-10-17T08:52:54.320Z,98296.03
2022-10-17T08:55:41.280Z,98310.78
2022-10-17T08:58:15.467Z,98319.28
2022-10-17T09:01:02.768Z,98314.03
2022-10-17T09:03:29.933Z,98324.44
2022-10-17T09:06:03.879Z,98320.16
2022-10-17T09:08:41.381Z,98323.59
2022-10-17T09:11:15.223Z,98326.13
2022-10-17T09:14:43.490Z,98335.53
2022-10-17T09:17:18.487Z,98331.28
2022-10-17T09:20:10.262Z,98325.28
2022-10-17T09:22:50.201Z,98238.78
2022-10-17T09:25:17.640Z,98331.28
2022-10-17T09:28:10.472Z,98338.09
2022-10-17T09:30:45.067Z,98333.88
2022-10-17T09:33:35.073Z,98327.84
2022-10-17T09:36:17.209Z,98342.41
2022-10-17T09:38:52.671Z,98332.97
2022-10-17T09:41:45.974Z,98340.66
2022-10-17T09:44:22.007Z,98340.72
2022-10-17T09:47:10.306Z,98348.38
2022-10-17T09:49:38.803Z,98340.66
2022-10-17T09:52:19.304Z,98337.22
2022-10-17T09:54:50.899Z,98325.19
2022-10-17T09:57:18.647Z,98336.44
2022-10-17T09:59:47.403Z,98329.47
2022-10-17T10:02:13.832Z,98328.72
2022-10-17T10:05:05.974Z,98333.88
2022-10-17T10:07:38.119Z,98335.59
2022-10-17T10:10:06.883Z,98335.50
2022-10-17T10:12:37.700Z,98332.16
2022-10-17T10:15:31.445Z,98333.03
2022-10-17T10:17:57.927Z,98332.19
2022-10-17T10:20:30.896Z,98327.00
2022-10-17T10:23:18.592Z,98324.50
2022-10-17T10:25:56.232Z,98310.78
2022-10-17T10:28:30.742Z,98329.53
2022-10-17T10:30:58.828Z,98327.06
2022-10-17T10:33:29.087Z,98330.53
2022-10-17T10:36:01.863Z,98315.06
2022-10-17T10:38:34.608Z,98329.69
2022-10-17T10:41:10.384Z,98322.00
2022-10-17T10:43:41.268Z,98322.88
2022-10-17T10:46:30.040Z,98323.75
2022-10-17T10:48:59.653Z,98318.63
2022-10-17T10:51:40.244Z,98316.06
2022-10-17T10:54:16.133Z,98318.63
2022-10-17T10:56:45.481Z,98310.78
2022-10-17T10:59:41.499Z,98312.69
2022-10-17T11:02:11.004Z,98312.69
2022-10-17T11:04:53.688Z,98316.13
2022-10-17T11:07:43.757Z,98310.13
2022-10-17T11:10:26.396Z,98316.97
2022-10-17T11:12:57.278Z,98315.25
2022-10-17T11:15:54.744Z,98298.97
2022-10-17T11:18:35.211Z,98287.81
2022-10-17T11:21:15.217Z,98302.47
2022-10-17T11:23:45.000Z,98281.63
2022-10-17T11:26:15.589Z,98303.31
2022-10-17T11:28:42.102Z,98289.34
2022-10-17T11:31:14.842Z,98313.56
2022-10-17T11:33:49.009Z,98287.66
2022-10-17T11:36:16.969Z,98300.75
2022-10-17T11:39:02.153Z,98299.03
2022-10-17T11:41:44.625Z,98282.53
2022-10-17T11:44:39.360Z,98289.66
2022-10-17T11:47:30.623Z,98287.09
2022-10-17T11:53:17.570Z,98281.97
2022-10-17T11:55:44.031Z,98285.34
2022-10-17T11:58:32.545Z,98283.69
2022-10-17T12:01:30.039Z,98282.84
2022-10-17T12:04:13.831Z,98272.59
2022-10-17T12:07:11.652Z,98268.19
2022-10-17T12:10:00.035Z,98265.69
2022-10-17T12:12:31.927Z,98270.00
2022-10-17T12:15:13.972Z,98268.31
2022-10-17T12:17:44.684Z,98254.38
2022-10-17T12:20:21.174Z,98274.31
2022-10-17T12:22:48.179Z,98269.19
2022-10-17T12:25:23.958Z,98271.75
2022-10-17T12:27:50.808Z,98259.59
2022-10-17T12:30:22.769Z,98270.88
2022-10-17T12:33:07.189Z,98262.28
2022-10-17T12:35:35.372Z,98267.50
2022-10-17T12:38:18.141Z,98261.50
2022-10-17T12:40:48.718Z,98260.59
2022-10-17T12:43:15.555Z,98267.50
2022-10-17T12:45:46.955Z,98264.94
2022-10-17T12:48:30.640Z,98259.81
2022-10-17T12:51:17.686Z,98258.94
2022-10-17T12:53:46.554Z,98267.50
2022-10-17T12:56:17.185Z,98255.28
2022-10-17T12:58:48.309Z,98263.13
2022-10-17T13:01:27.194Z,98262.28
2022-10-17T13:03:53.728Z,98264.84
2022-10-17T13:06:28.008Z,98261.38
2022-10-17T13:09:04.151Z,98266.50
2022-10-17T13:11:32.675Z,98253.44
2022-10-17T13:14:00.663Z,98264.84
2022-10-17T13:16:59.572Z,98268.34
2022-10-17T13:19:29.263Z,98275.19
2022-10-17T13:22:05.979Z,98275.19
2022-10-17T13:24:36.975Z,98272.63
2022-10-17T13:27:04.279Z,98270.06
2022-10-17T13:29:32.309Z,98273.47
2022-10-17T13:32:01.444Z,98267.50
2022-10-17T13:34:28.041Z,98271.81
2022-10-17T13:37:02.547Z,98267.50
2022-10-17T13:39:54.738Z,98271.81
2022-10-17T13:42:27.705Z,98258.66
2022-10-17T13:44:54.601Z,98268.97
2022-10-17T13:47:26.007Z,98280.41
2022-10-17T13:49:55.160Z,98274.25
2022-10-17T13:52:24.433Z,98278.63
2022-10-17T13:54:51.775Z,98265.69
2022-10-17T13:57:23.692Z,98265.63
2022-10-17T13:59:52.358Z,98267.41
2022-10-17T14:02:24.481Z,98270.91
2022-10-17T14:05:23.010Z,98278.63
2022-10-17T14:08:13.781Z,98276.88
2022-10-17T14:10:42.475Z,98272.63
2022-10-17T14:13:24.669Z,98276.94
2022-10-17T14:15:52.036Z,98259.66
2022-10-17T14:18:21.942Z,98270.16
2022-10-17T14:21:31.791Z,98272.59
2022-10-17T14:23:38.026Z,98276.03
2022-10-17T14:26:06.666Z,98279.59
2022-10-17T14:28:33.249Z,98269.19
2022-10-17T14:31:14.072Z,98264.84
2022-10-17T14:33:50.577Z,98268.34
2022-10-17T14:36:17.845Z,98252.66
2022-10-17T14:38:49.871Z,98276.13
2022-10-17T14:44:20.751Z,98276.19
2022-10-17T14:46:50.698Z,98278.56
2022-10-17T14:49:28.374Z,98277.91
2022-10-17T14:52:28.482Z,98281.31
2022-10-17T14:54:55.273Z,98285.59
2022-10-17T14:57:26.308Z,98293.28
2022-10-17T14:59:55.576Z,98285.59
2022-10-17T15:02:24.076Z,98289.84
2022-10-17T15:04:50.572Z,98288.97
2022-10-17T15:07:17.544Z,98292.47
2022-10-17T15:09:44.589Z,98294.13
2022-10-17T15:12:18.921Z,98300.16
2022-10-17T15:14:45.648Z,98295.84
2022-10-17T15:17:27.284Z,98304.41
2022-10-17T15:19:53.962Z,98301.84
2022-10-17T15:22:20.450Z,98290.59
2022-10-17T15:24:46.998Z,98309.53
2022-10-17T15:27:24.088Z,98291.22
2022-10-17T15:29:50.735Z,98302.66
2022-10-17T15:32:17.238Z,98300.09
2022-10-17T15:34:43.759Z,98305.22
2022-10-17T15:37:22.048Z,98300.84
2022-10-17T15:39:53.391Z,98223.13
2022-10-17T15:42:26.576Z,98305.22
2022-10-17T15:44:53.139Z,98310.34
2022-10-17T15:47:23.941Z,98309.47
2022-10-17T15:49:50.542Z,98312.94
2022-10-17T15:52:17.053Z,98306.06
2022-10-17T15:54:43.546Z,98309.38
2022-10-17T15:57:18.727Z,98301.59
2022-10-17T15:59:46.871Z,98312.03
2022-10-17T16:02:14.575Z,98314.66
2022-10-17T16:04:41.242Z,98316.38
2022-10-17T16:07:07.729Z,98313.66
2022-10-17T16:09:34.795Z,98322.34
2022-10-17T16:12:01.338Z,98330.03
2022-10-17T16:14:27.853Z,98329.19
2022-10-17T16:16:54.485Z,98329.19
2022-10-17T16:19:21.723Z,98328.38
2022-10-17T16:21:48.199Z,98329.25
2022-10-17T16:24:14.704Z,98335.19
2022-10-17T16:26:41.272Z,98346.31
2022-10-17T16:29:09.275Z,98337.78
2022-10-17T16:31:36.747Z,98342.06
2022-10-17T16:34:03.715Z,98334.97
2022-10-17T16:36:30.241Z,98340.25
2022-10-17T16:38:56.765Z,98344.63
2022-10-17T16:41:31.244Z,98347.22
2022-10-17T16:43:59.025Z,98348.00
2022-10-17T16:46:26.352Z,98344.63
2022-10-17T16:48:52.848Z,98346.31
2022-10-17T16:51:19.979Z,98348.88
2022-10-17T16:53:47.388Z,98348.00
2022-10-17T16:56:15.480Z,98347.94
2022-10-17T16:58:42.272Z,98355.69
2022-10-17T17:01:10.947Z,98368.53
2022-10-17T17:03:38.090Z,98360.88
2022-10-17T17:06:06.536Z,98368.53
2022-10-17T17:08:33.632Z,98362.47
2022-10-17T17:11:00.285Z,98367.66
2022-10-17T17:13:27.854Z,98368.53
2022-10-17T17:16:04.568Z,98368.53
2022-10-17T17:18:31.649Z,98373.66
2022-10-17T17:21:02.086Z,98375.38
2022-10-17T17:23:28.915Z,98370.22
2022-10-17T17:25:59.487Z,98368.53
2022-10-17T17:28:26.528Z,98356.22
2022-10-17T17:30:53.691Z,98343.06
2022-10-17T17:33:20.687Z,98371.97
2022-10-17T17:35:47.160Z,98366.69
2022-10-17T17:38:14.240Z,98365.06
2022-10-17T17:40:50.376Z,98368.53
2022-10-17T17:43:17.934Z,98371.13
2022-10-17T17:45:44.717Z,98370.22
2022-10-17T17:48:12.230Z,98378.84
2022-10-17T17:50:39.518Z,98381.41
2022-10-17T17:53:06.739Z,98379.72
2022-10-17T17:55:33.737Z,98382.22
2022-10-17T17:58:00.419Z,98384.91
2022-10-17T18:00:27.290Z,98380.59
2022-10-17T18:02:53.809Z,98372.97
2022-10-17T18:05:20.306Z,98375.53
2022-10-17T18:07:46.854Z,98378.88
2022-10-17T18:12:42.076Z,98384.06
2022-10-17T18:15:08.927Z,98385.78
2022-10-17T18:17:35.523Z,98374.47
2022-10-17T18:20:03.466Z,98385.78
2022-10-17T18:22:30.302Z,98385.78
2022-10-17T18:24:56.929Z,98390.91
2022-10-17T18:27:23.406Z,98383.22
2022-10-17T18:29:51.125Z,98385.78
2022-10-17T18:32:17.699Z,98383.22
2022-10-17T18:34:44.262Z,98380.59
2022-10-17T18:37:10.801Z,98390.88
2022-10-17T18:39:37.402Z,98385.78
2022-10-17T18:42:03.911Z,98387.47
2022-10-17T18:44:30.465Z,98384.06
2022-10-17T18:47:02.901Z,98384.91
2022-10-17T18:49:30.854Z,98385.78
2022-10-17T18:51:57.551Z,98386.63
2022-10-17T18:54:24.410Z,98385.78
2022-10-17T18:56:51.847Z,98391.78
2022-10-17T18:59:19.199Z,98393.38
2022-10-17T19:01:45.796Z,98399.47
2022-10-17T19:04:12.425Z,98406.31
2022-10-17T19:06:39.026Z,98408.88
2022-10-17T19:09:07.415Z,98412.28
2022-10-17T19:11:34.696Z,98407.16
2022-10-17T19:14:02.526Z,98414.84
2022-10-17T19:16:31.075Z,98422.56
2022-10-17T19:18:59.674Z,98440.50
2022-10-17T19:21:26.267Z,98427.69
2022-10-17T19:23:58.370Z,98438.81
2022-10-17T19:26:25.280Z,98459.22
2022-10-17T19:28:53.418Z,98436.25
2022-10-17T19:31:27.083Z,98433.69
2022-10-17T19:33:54.302Z,98431.13
2022-10-17T19:36:21.527Z,98413.78
2022-10-17T19:38:48.083Z,98424.31
2022-10-17T19:41:15.327Z,98421.75
2022-10-17T19:43:42.512Z,98428.56
2022-10-17T19:46:12.519Z,98416.19
2022-10-17T19:48:39.115Z,98423.44
2022-10-17T19:51:06.423Z,98427.69
2022-10-17T19:53:33.227Z,98430.25
2022-10-17T19:55:59.831Z,98427.50
2022-10-17T19:58:26.425Z,98426.81
2022-10-17T20:00:57.623Z,98431.13
2022-10-17T20:03:24.742Z,98423.31
2022-10-17T20:05:51.265Z,98435.38
2022-10-17T20:08:17.812Z,98437.94
2022-10-17T20:10:44.354Z,98438.81
2022-10-17T20:13:10.830Z,98432.81
2022-10-17T20:15:37.453Z,98428.56
2022-10-17T20:18:04.605Z,98429.28
2022-10-17T20:20:31.090Z,98443.97
2022-10-17T20:22:57.567Z,98446.53
2022-10-17T20:25:24.116Z,98443.97
2022-10-17T20:27:50.638Z,98449.09
2022-10-17T20:30:17.171Z,98454.22
2022-10-17T20:32:43.715Z,98455.09
2022-10-17T20:35:10.218Z,98459.34
2022-10-17T20:37:41.526Z,98444.56
2022-10-17T20:40:34.027Z,98453.34
2022-10-17T20:42:56.199Z,98448.19
2022-10-17T20:45:37.338Z,98456.78
2022-10-17T20:48:14.276Z,98455.00
2022-10-17T20:50:41.071Z,98455.84
2022-10-17T20:53:31.803Z,98457.66
2022-10-17T20:56:04.460Z,98447.34
2022-10-17T20:58:31.002Z,98453.34
2022-10-17T21:00:57.538Z,98455.91
2022-10-17T21:03:24.357Z,98455.91
2022-10-17T21:05:50.891Z,98466.09
2022-10-17T21:08:17.347Z,98470.44
2022-10-17T21:10:43.865Z,98470.44
2022-10-17T21:13:10.366Z,98471.22
2022-10-17T21:15:36.901Z,98469.56
2022-10-17T21:18:03.671Z,98473.84
2022-10-17T21:20:30.128Z,98470.44
2022-10-17T21:22:57.455Z,98468.72
2022-10-17T21:25:23.937Z,98465.25
2022-10-17T21:27:52.308Z,98461.84
2022-10-17T21:30:19.805Z,98464.41
2022-10-17T21:32:51.383Z,98461.84
2022-10-17T21:35:18.402Z,98456.63
2022-10-17T21:37:44.904Z,98460.00
2022-10-17T21:40:12.138Z,98468.66
2022-10-17T21:42:38.635Z,98463.53
2022-10-17T21:45:10.764Z,98468.66
2022-10-17T21:47:54.937Z,98459.28
2022-10-17T21:50:28.490Z,98447.88
2022-10-17T21:52:54.959Z,98458.41
2022-10-17T21:55:21.427Z,98459.19
2022-10-17T21:57:47.999Z,98461.78
2022-10-17T22:00:14.699Z,98462.69
2022-10-17T22:02:41.219Z,98459.22
2022-10-17T22:05:08.076Z,98461.78
2022-10-17T22:07:34.583Z,98468.66
2022-10-17T22:10:01.131Z,98463.53
2022-10-17T22:12:27.658Z,98473.78
2022-10-17T22:14:54.224Z,98463.53
2022-10-17T22:17:20.734Z,98463.53
2022-10-17T22:19:47.315Z,98462.69
2022-10-17T22:22:13.967Z,98463.53
2022-10-17T22:24:40.467Z,98456.63
2022-10-17T22:27:07.151Z,98456.72
2022-10-17T22:29:34.436Z,98462.69
2022-10-17T22:32:00.907Z,98465.25
2022-10-17T22:34:27.495Z,98471.22
2022-10-17T22:36:54.044Z,98472.06
2022-10-17T22:39:20.583Z,98472.94
2022-10-17T22:41:47.084Z,98479.75
2022-10-17T22:44:13.719Z,98438.00
2022-10-17T22:46:40.248Z,98472.06
2022-10-17T22:49:06.756Z,98457.56
2022-10-17T22:51:33.264Z,98449.69
2022-10-17T22:53:59.762Z,98451.53
2022-10-17T22:56:26.443Z,98455.00
2022-10-17T22:58:52.938Z,98449.84
2022-10-17T23:01:21.113Z,98461.75
2022-10-17T23:03:47.773Z,98453.28
2022-10-17T23:06:14.319Z,98439.59
2022-10-17T23:08:41.115Z,98436.16
2022-10-17T23:11:07.850Z,98436.16
2022-10-17T23:13:34.460Z,98423.91
2022-10-17T23:16:01.024Z,98433.31
2022-10-17T23:18:27.664Z,98438.72
2022-10-17T23:20:54.315Z,98442.16
2022-10-17T23:23:20.860Z,98432.69
2022-10-17T23:25:47.575Z,98428.44
2022-10-17T23:28:14.166Z,98437.84
2022-10-17T23:30:40.791Z,98424.75
2022-10-17T23:33:07.439Z,98434.34
2022-10-17T23:35:34.147Z,98432.69
2022-10-17T23:38:00.653Z,98439.59
2022-10-17T23:40:28.058Z,98433.59
2022-10-17T23:42:54.538Z,98431.03
2022-10-17T23:45:21.109Z,98424.16
2022-10-17T23:47:47.631Z,98424.03
2022-10-17T23:50:14.147Z,98431.72
2022-10-17T23:52:40.688Z,98434.41
2022-10-17T23:55:08.008Z,98428.34
2022-10-17T23:57:34.711Z,98441.28
